Time;durP1;ratioP1;P1;durP2;ratioP2;P2;SDS_P1;SDS_P2;PMS_P1;PMS_P2;Temp;Humidity;BMP_temperature;BMP_pressure;BME280_temperature;BME280_humidity;BME280_pressure;Samples;Min_cycle;Max_cycle;Signal;HPM_P1;HPM_P2
2023/06/12 00:02:06;;;;;;;9.95;5.80;;;;;16.80;96333.00;;;;8282888;28;20587;-68
2023/06/12 00:06:14;;;;;;;8.75;6.25;;;;;16.80;96340.00;;;;8286201;28;20202;-68
2023/06/12 00:10:26;;;;;;;9.43;6.72;;;;;16.80;96334.00;;;;8288122;28;20206;-68
2023/06/12 00:14:29;;;;;;;8.80;5.72;;;;;16.80;96342.00;;;;8288637;28;20258;-69
2023/06/12 00:18:32;;;;;;;11.15;6.20;;;;;16.80;96340.00;;;;8285743;28;20194;-69
2023/06/12 00:22:39;;;;;;;8.45;6.80;;;;;16.70;96341.00;;;;8281743;28;20786;-68
2023/06/12 00:26:45;;;;;;;6.95;6.00;;;;;16.60;96337.00;;;;8287085;28;20202;-70
2023/06/12 00:30:48;;;;;;;8.48;5.53;;;;;16.50;96336.00;;;;8285927;28;20194;-68
2023/06/12 00:34:51;;;;;;;7.18;5.88;;;;;16.50;96346.00;;;;8286540;28;20743;-70
2023/06/12 00:38:55;;;;;;;7.00;5.95;;;;;16.40;96345.00;;;;8282157;28;20219;-69
2023/06/12 00:43:01;;;;;;;9.45;6.50;;;;;16.40;96339.00;;;;8287077;28;20237;-69
2023/06/12 00:47:05;;;;;;;11.95;6.43;;;;;16.30;96338.00;;;;8286335;28;20220;-69
2023/06/12 00:51:10;;;;;;;8.25;6.63;;;;;16.30;96337.00;;;;8276339;28;20309;-70
2023/06/12 00:55:18;;;;;;;8.02;6.35;;;;;16.30;96327.00;;;;8284943;28;20285;-69
2023/06/12 00:59:26;;;;;;;6.65;5.88;;;;;16.30;96329.00;;;;8283371;28;20293;-70
2023/06/12 01:03:29;;;;;;;8.95;6.03;;;;;16.20;96334.00;;;;8285770;28;20344;-69
2023/06/12 01:07:43;;;;;;;8.52;6.93;;;;;16.10;96326.00;;;;8285741;28;20202;-68
2023/06/12 01:11:51;;;;;;;9.52;6.55;;;;;16.00;96329.00;;;;8286911;28;20834;-70
2023/06/12 01:15:59;;;;;;;7.78;6.50;;;;;15.60;96323.00;;;;8280133;28;20209;-69
2023/06/12 01:20:06;;;;;;;9.73;6.80;;;;;15.20;96334.00;;;;8284486;28;20225;-69
2023/06/12 01:24:46;;;;;;;8.43;6.88;;;;;15.00;96333.00;;;;8276689;28;20232;-68
2023/06/12 01:29:12;;;;;;;8.60;6.97;;;;;14.90;96320.00;;;;8280839;28;20285;-70
2023/06/12 01:33:19;;;;;;;8.57;6.03;;;;;15.10;96323.00;;;;8279263;28;20667;-68
2023/06/12 01:37:31;;;;;;;8.70;6.97;;;;;15.20;96332.00;;;;8283987;28;20194;-69
2023/06/12 01:41:38;;;;;;;8.80;6.72;;;;;15.20;96331.00;;;;8282906;28;20232;-70
2023/06/12 01:45:43;;;;;;;9.25;7.20;;;;;15.20;96330.00;;;;8283598;28;20198;-67
2023/06/12 01:49:51;;;;;;;10.63;7.15;;;;;15.20;96325.00;;;;8277039;28;20198;-68
2023/06/12 01:54:00;;;;;;;9.07;6.80;;;;;15.30;96322.00;;;;8285043;28;20250;-67
2023/06/12 01:58:05;;;;;;;8.93;6.88;;;;;15.30;96320.00;;;;8278070;28;20743;-68
2023/06/12 02:02:13;;;;;;;10.80;6.93;;;;;15.30;96323.00;;;;8277956;28;20325;-68
2023/06/12 02:06:18;;;;;;;10.02;6.65;;;;;15.10;96310.00;;;;8281784;28;20214;-72
2023/06/12 02:10:32;;;;;;;11.02;7.18;;;;;14.80;96322.00;;;;8271665;28;20233;-68
2023/06/12 02:14:36;;;;;;;8.85;6.88;;;;;14.60;96318.00;;;;8278106;28;20243;-68
2023/06/12 02:18:40;;;;;;;10.95;7.03;;;;;14.40;96318.00;;;;8281342;28;20238;-70
2023/06/12 02:22:45;;;;;;;9.10;6.95;;;;;14.20;96318.00;;;;8274377;28;20268;-68
2023/06/12 02:26:49;;;;;;;9.20;6.63;;;;;14.00;96320.00;;;;8277211;28;20216;-69
2023/06/12 02:30:52;;;;;;;9.00;7.00;;;;;14.00;96327.00;;;;8279634;28;20204;-70
2023/06/12 02:35:00;;;;;;;11.13;7.53;;;;;14.00;96329.00;;;;8279228;28;20288;-68
2023/06/12 02:39:05;;;;;;;21.15;7.95;;;;;14.10;96328.00;;;;8282705;28;20206;-69
2023/06/12 02:43:08;;;;;;;10.40;7.68;;;;;14.00;96331.00;;;;8280856;28;20231;-70
2023/06/12 02:47:16;;;;;;;8.90;7.13;;;;;14.10;96328.00;;;;8283472;28;20584;-69
2023/06/12 02:51:21;;;;;;;13.02;7.57;;;;;14.10;96336.00;;;;8279279;28;20189;-68
2023/06/12 02:55:37;;;;;;;10.57;7.80;;;;;14.20;96339.00;;;;8276140;28;21747;-68
2023/06/12 02:59:40;;;;;;;14.55;8.32;;;;;14.40;96330.00;;;;8277907;28;20201;-69
2023/06/12 03:03:59;;;;;;;14.18;7.68;;;;;14.40;96328.00;;;;8351673;23;20560;-96
2023/06/12 03:08:21;;;;;;;10.57;7.72;;;;;14.40;96328.00;;;;8351527;28;20284;-95
2023/06/12 03:12:34;;;;;;;9.75;7.63;;;;;14.30;96325.00;;;;8350021;28;20215;-95
2023/06/12 03:16:42;;;;;;;8.43;6.63;;;;;14.20;96325.00;;;;8349404;28;20211;-94
2023/06/12 03:21:06;;;;;;;10.13;7.75;;;;;14.10;96322.00;;;;8351157;28;20556;-94
2023/06/12 03:30:06;;;;;;;11.35;7.65;;;;;14.20;96323.00;;;;8353937;28;20223;-95
2023/06/12 03:34:27;;;;;;;10.23;7.80;;;;;14.30;96311.00;;;;8351214;28;20193;-95
2023/06/12 03:43:18;;;;;;;10.43;7.43;;;;;14.70;96333.00;;;;8354807;28;20216;-94
2023/06/12 03:52:36;;;;;;;12.25;8.18;;;;;15.20;96321.00;;;;8351710;28;20205;-95
2023/06/12 03:56:42;;;;;;;11.60;7.50;;;;;15.30;96333.00;;;;8352490;28;20640;-95
2023/06/12 04:05:10;;;;;;;10.02;7.72;;;;;15.80;96334.00;;;;8350507;28;20536;-94
2023/06/12 04:09:22;;;;;;;7.90;7.10;;;;;16.10;96342.00;;;;8349284;28;20193;-94
2023/06/12 04:13:27;;;;;;;17.05;7.85;;;;;16.50;96340.00;;;;8349857;28;20193;-95
2023/06/12 04:17:38;;;;;;;10.38;7.25;;;;;17.00;96342.00;;;;8349293;28;20201;-94
2023/06/12 04:21:45;;;;;;;13.82;7.25;;;;;17.30;96350.00;;;;8350311;28;20232;-95
2023/06/12 04:26:01;;;;;;;9.55;7.47;;;;;17.60;96348.00;;;;8355388;28;20231;-96
2023/06/12 04:30:15;;;;;;;11.82;7.80;;;;;17.90;96351.00;;;;8355793;28;20200;-95
2023/06/12 04:34:26;;;;;;;13.15;7.78;;;;;18.10;96355.00;;;;8355220;28;20194;-96
2023/06/12 04:38:30;;;;;;;10.48;7.10;;;;;18.40;96347.00;;;;8356165;28;20224;-95
2023/06/12 04:42:40;;;;;;;11.35;7.25;;;;;18.80;96342.00;;;;8355541;28;20248;-95
2023/06/12 04:46:55;;;;;;;10.82;7.85;;;;;18.90;96342.00;;;;8358339;28;20284;-95
2023/06/12 04:51:02;;;;;;;11.98;7.38;;;;;19.00;96344.00;;;;8358998;28;20655;-94
2023/06/12 04:55:16;;;;;;;12.65;6.95;;;;;18.90;96346.00;;;;8355544;28;20201;-95
2023/06/12 04:59:37;;;;;;;13.30;7.80;;;;;19.00;96345.00;;;;8339044;28;20198;-96
2023/06/12 05:03:42;;;;;;;10.57;7.32;;;;;18.90;96348.00;;;;8355754;28;20229;-96
2023/06/12 05:07:49;;;;;;;12.75;7.55;;;;;18.90;96339.00;;;;8339540;28;20248;-96
2023/06/12 05:16:25;;;;;;;9.55;7.60;;;;;18.90;96350.00;;;;8349486;28;20613;-96
2023/06/12 05:20:28;;;;;;;11.73;6.68;;;;;18.90;96362.00;;;;8353826;28;20713;-96
2023/06/12 05:24:34;;;;;;;8.82;7.03;;;;;18.80;96356.00;;;;8351589;28;20279;-96
2023/06/12 05:28:44;;;;;;;11.70;7.25;;;;;18.80;96366.00;;;;8353529;28;20284;-96
2023/06/12 05:32:58;;;;;;;8.70;7.55;;;;;18.80;96372.00;;;;8352265;28;20582;-96
2023/06/12 05:37:07;;;;;;;13.73;6.93;;;;;18.90;96371.00;;;;8353003;28;20190;-96
2023/06/12 05:41:13;;;;;;;13.18;7.28;;;;;19.10;96379.00;;;;8353847;28;20284;-95
2023/06/12 05:45:27;;;;;;;12.60;7.03;;;;;19.50;96377.00;;;;8353908;28;20208;-96
2023/06/12 05:49:53;;;;;;;10.05;7.22;;;;;19.90;96372.00;;;;8352727;28;20209;-95
2023/06/12 05:54:04;;;;;;;10.55;7.68;;;;;20.20;96375.00;;;;8352330;28;20198;-96
2023/06/12 05:58:10;;;;;;;10.35;7.35;;;;;20.70;96377.00;;;;8352935;28;20204;-95
2023/06/12 06:02:22;;;;;;;8.63;7.20;;;;;20.90;96387.00;;;;8351805;28;20236;-95
2023/06/12 06:06:31;;;;;;;10.13;7.40;;;;;21.10;96392.00;;;;8353367;28;20296;-94
2023/06/12 06:10:51;;;;;;;13.60;7.32;;;;;21.60;96385.00;;;;8335751;28;20197;-95
2023/06/12 06:15:01;;;;;;;8.32;7.25;;;;;21.70;96386.00;;;;8351518;28;20578;-95
2023/06/12 06:19:07;;;;;;;9.98;7.68;;;;;21.80;96394.00;;;;8351660;28;20224;-95
2023/06/12 06:23:14;;;;;;;9.25;7.22;;;;;21.90;96402.00;;;;8350505;28;20284;-96
2023/06/12 06:27:23;;;;;;;11.30;7.40;;;;;22.10;96405.00;;;;8350843;28;20204;-95
2023/06/12 06:31:27;;;;;;;10.77;7.93;;;;;22.40;96404.00;;;;8350845;28;20236;-95
2023/06/12 06:35:34;;;;;;;9.52;7.88;;;;;22.70;96409.00;;;;8352194;28;20200;-96
2023/06/12 06:39:44;;;;;;;11.27;7.57;;;;;22.90;96412.00;;;;8350769;28;20202;-95
2023/06/12 06:43:52;;;;;;;9.15;6.97;;;;;23.20;96413.00;;;;8349085;28;20308;-95
2023/06/12 06:47:57;;;;;;;8.68;7.20;;;;;23.30;96421.00;;;;8349955;28;20213;-94
2023/06/12 06:52:05;;;;;;;11.48;7.80;;;;;23.10;96418.00;;;;8350381;28;20201;-94
2023/06/12 06:56:16;;;;;;;10.57;7.60;;;;;23.10;96413.00;;;;8350749;28;20227;-96
2023/06/12 07:00:34;;;;;;;17.77;7.32;;;;;23.00;96404.00;;;;8352697;28;20212;-95
2023/06/12 07:04:42;;;;;;;13.40;8.05;;;;;23.00;96408.00;;;;8353982;28;20225;-96
2023/06/12 07:08:47;;;;;;;13.05;7.45;;;;;23.20;96412.00;;;;8352902;28;20193;-96
2023/06/12 07:17:36;;;;;;;14.88;7.35;;;;;24.10;96410.00;;;;8353398;28;20212;-96
2023/06/12 07:21:59;;;;;;;9.15;6.72;;;;;24.60;96402.00;;;;8351697;28;20280;-96
2023/06/12 07:26:18;;;;;;;8.45;6.88;;;;;24.80;96411.00;;;;8351568;28;20200;-96
2023/06/12 07:30:57;;;;;;;13.48;7.38;;;;;25.60;96413.00;;;;8351569;28;20202;-95
2023/06/12 07:35:10;;;;;;;7.63;6.32;;;;;25.40;96410.00;;;;8352324;28;20225;-94
2023/06/12 07:39:18;;;;;;;11.30;6.93;;;;;25.40;96396.00;;;;8352555;28;20197;-96
2023/06/12 07:43:41;;;;;;;8.88;6.30;;;;;25.40;96395.00;;;;8357674;28;20744;-96
2023/06/12 08:03:25;;;;;;;7.30;6.03;;;;;27.20;96401.00;;;;8340829;22;20299;-67
2023/06/12 08:07:33;;;;;;;6.85;5.75;;;;;26.40;96401.00;;;;8311651;28;20280;-67
2023/06/12 08:11:39;;;;;;;6.78;6.07;;;;;26.60;96404.00;;;;8314807;28;20189;-68
2023/06/12 08:15:44;;;;;;;5.75;5.20;;;;;26.30;96401.00;;;;8310056;28;20640;-68
2023/06/12 08:19:51;;;;;;;10.13;5.47;;;;;25.30;96401.00;;;;8305884;28;20217;-66
2023/06/12 08:23:54;;;;;;;7.95;5.07;;;;;26.20;96396.00;;;;8310595;28;20569;-66
2023/06/12 08:27:58;;;;;;;10.20;5.28;;;;;27.10;96402.00;;;;8312680;28;20720;-67
2023/06/12 08:32:01;;;;;;;8.38;5.28;;;;;28.00;96399.00;;;;8312083;28;20204;-67
2023/06/12 08:36:09;;;;;;;7.82;5.38;;;;;28.50;96394.00;;;;8307393;28;20248;-67
2023/06/12 08:40:15;;;;;;;8.90;5.03;;;;;28.80;96397.00;;;;8305878;28;20209;-68
2023/06/12 08:44:21;;;;;;;5.35;4.57;;;;;29.60;96398.00;;;;8307771;28;20288;-68
2023/06/12 08:48:28;;;;;;;9.32;4.63;;;;;29.80;96391.00;;;;8314917;28;20263;-67
2023/06/12 08:52:33;;;;;;;6.47;4.43;;;;;30.10;96394.00;;;;8308414;28;20193;-70
2023/06/12 08:56:38;;;;;;;5.90;4.60;;;;;30.00;96389.00;;;;8309222;28;20504;-66
2023/06/12 09:00:42;;;;;;;7.25;4.63;;;;;30.20;96390.00;;;;8309346;28;20206;-66
2023/06/12 09:04:54;;;;;;;11.75;4.78;;;;;30.40;96404.00;;;;8315989;28;20225;-66
2023/06/12 09:09:01;;;;;;;8.15;4.38;;;;;29.10;96391.00;;;;8313859;28;20694;-65
2023/06/12 09:13:08;;;;;;;7.15;4.97;;;;;28.50;96380.00;;;;8309419;28;20339;-65
2023/06/12 09:17:11;;;;;;;6.75;4.47;;;;;28.20;96386.00;;;;8312992;28;20213;-66
2023/06/12 09:21:19;;;;;;;6.97;5.22;;;;;27.70;96397.00;;;;8313796;28;20198;-62
2023/06/12 09:25:29;;;;;;;6.15;4.32;;;;;27.60;96394.00;;;;8310782;28;20218;-66
2023/06/12 09:29:34;;;;;;;8.63;4.60;;;;;27.70;96393.00;;;;8313055;28;20208;-66
2023/06/12 09:33:40;;;;;;;5.18;4.13;;;;;27.90;96389.00;;;;8316855;28;20204;-68
2023/06/12 09:37:43;;;;;;;4.55;4.15;;;;;28.20;96386.00;;;;8313369;28;20204;-67
2023/06/12 09:41:52;;;;;;;5.57;4.65;;;;;28.70;96387.00;;;;8312192;28;20208;-67
2023/06/12 09:45:58;;;;;;;10.80;4.25;;;;;29.00;96391.00;;;;8307070;28;20232;-68
2023/06/12 09:50:01;;;;;;;7.15;4.35;;;;;29.40;96384.00;;;;8310127;28;20233;-67
2023/06/12 09:54:06;;;;;;;5.28;4.20;;;;;29.60;96389.00;;;;8296651;28;20208;-66
2023/06/12 09:58:14;;;;;;;4.53;4.13;;;;;30.00;96384.00;;;;8313762;28;20893;-67
2023/06/12 10:02:18;;;;;;;6.25;3.92;;;;;30.10;96382.00;;;;8311184;28;20231;-67
2023/06/12 10:06:24;;;;;;;6.13;4.45;;;;;30.60;96377.00;;;;8308479;28;20291;-67
2023/06/12 10:10:28;;;;;;;5.38;4.82;;;;;31.00;96373.00;;;;8306415;28;20204;-68
2023/06/12 10:14:40;;;;;;;6.60;4.57;;;;;31.30;96372.00;;;;8306386;28;20654;-67
2023/06/12 10:18:49;;;;;;;7.63;4.60;;;;;31.30;96363.00;;;;8305664;28;20202;-67
2023/06/12 10:22:56;;;;;;;5.10;4.65;;;;;30.30;96375.00;;;;8305844;28;20209;-67
2023/06/12 10:27:00;;;;;;;5.20;4.70;;;;;29.80;96379.00;;;;8301350;28;20218;-68
2023/06/12 10:31:16;;;;;;;6.15;4.03;;;;;29.80;96366.00;;;;8304268;28;20205;-71
2023/06/12 10:35:31;;;;;;;5.47;4.25;;;;;29.30;96366.00;;;;8307035;28;20192;-72
2023/06/12 10:39:36;;;;;;;7.10;4.60;;;;;29.10;96373.00;;;;8309205;28;20197;-74
2023/06/12 10:43:40;;;;;;;4.95;4.45;;;;;30.00;96357.00;;;;8304625;28;20260;-72
2023/06/12 10:48:17;;;;;;;7.05;4.00;;;;;30.70;96364.00;;;;8300030;28;20198;-74
2023/06/12 10:52:21;;;;;;;7.72;4.40;;;;;30.50;96347.00;;;;8305872;28;20205;-72
2023/06/12 10:56:25;;;;;;;7.35;3.97;;;;;30.50;96343.00;;;;8305167;28;20194;-72
2023/06/12 11:00:31;;;;;;;9.10;4.10;;;;;29.90;96348.00;;;;8304408;28;20198;-74
2023/06/12 11:04:38;;;;;;;4.53;3.72;;;;;30.00;96350.00;;;;8310244;28;20231;-73
2023/06/12 11:08:52;;;;;;;5.57;4.32;;;;;30.30;96334.00;;;;8305187;28;20686;-74
2023/06/12 11:12:57;;;;;;;4.25;3.80;;;;;30.80;96331.00;;;;8307665;28;20189;-74
2023/06/12 11:17:00;;;;;;;4.72;4.13;;;;;30.90;96330.00;;;;8304482;28;20213;-74
2023/06/12 11:21:08;;;;;;;3.85;3.40;;;;;31.60;96329.00;;;;8304863;28;20212;-73
2023/06/12 11:25:11;;;;;;;3.83;3.45;;;;;32.20;96335.00;;;;8307287;28;20308;-74
2023/06/12 11:29:16;;;;;;;5.45;4.00;;;;;32.10;96335.00;;;;8308402;28;20744;-72
2023/06/12 11:33:25;;;;;;;3.70;3.40;;;;;31.20;96328.00;;;;8307014;28;20205;-74
2023/06/12 11:37:30;;;;;;;7.00;3.53;;;;;30.90;96330.00;;;;8302789;28;20255;-76
2023/06/12 11:41:36;;;;;;;3.67;3.10;;;;;31.10;96331.00;;;;8303281;28;20225;-72
2023/06/12 11:45:42;;;;;;;6.20;3.63;;;;;31.00;96308.00;;;;8305993;28;20222;-72
2023/06/12 11:49:48;;;;;;;8.43;4.03;;;;;31.50;96314.00;;;;8305861;28;20276;-72
2023/06/12 11:53:54;;;;;;;4.47;3.35;;;;;31.10;96314.00;;;;8307488;28;20630;-73
2023/06/12 11:58:02;;;;;;;3.58;3.28;;;;;30.60;96320.00;;;;8301527;28;20325;-73
2023/06/12 12:02:10;;;;;;;4.80;3.28;;;;;30.60;96319.00;;;;8305789;28;20240;-71
2023/06/12 12:06:13;;;;;;;4.05;3.65;;;;;30.40;96309.00;;;;8305159;28;20235;-74
2023/06/12 12:10:18;;;;;;;3.88;3.53;;;;;30.70;96317.00;;;;8300632;28;20221;-72
2023/06/12 12:14:24;;;;;;;3.88;3.30;;;;;30.70;96305.00;;;;8307157;28;20217;-73
2023/06/12 12:18:27;;;;;;;8.13;3.75;;;;;30.90;96299.00;;;;8303729;28;20634;-73
2023/06/12 12:22:30;;;;;;;3.70;3.40;;;;;30.80;96293.00;;;;8308009;28;20288;-73
2023/06/12 12:26:48;;;;;;;5.35;4.05;;;;;31.40;96298.00;;;;8305991;28;20336;-72
2023/06/12 12:30:51;;;;;;;4.25;3.55;;;;;31.50;96304.00;;;;8305647;28;20198;-74
2023/06/12 12:34:55;;;;;;;6.25;3.33;;;;;30.90;96294.00;;;;8302823;28;20229;-71
2023/06/12 12:39:06;;;;;;;5.68;3.58;;;;;30.80;96283.00;;;;8304524;28;20268;-70
2023/06/12 12:43:13;;;;;;;5.28;3.35;;;;;30.50;96290.00;;;;8305791;28;20880;-68
2023/06/12 12:47:18;;;;;;;5.50;3.40;;;;;30.30;96276.00;;;;8307366;28;20252;-73
2023/06/12 12:51:26;;;;;;;6.47;3.58;;;;;29.70;96274.00;;;;8310369;28;20212;-72
2023/06/12 12:55:32;;;;;;;5.65;3.33;;;;;28.90;96282.00;;;;8298305;28;20217;-69
2023/06/12 12:59:40;;;;;;;9.93;3.33;;;;;28.50;96281.00;;;;8312482;28;20208;-69
2023/06/12 13:03:44;;;;;;;3.50;3.20;;;;;28.20;96265.00;;;;8307168;28;20353;-70
2023/06/12 13:07:47;;;;;;;5.35;3.55;;;;;28.40;96268.00;;;;8303529;28;20198;-70
2023/06/12 13:11:56;;;;;;;6.72;3.53;;;;;29.10;96279.00;;;;8307708;28;20189;-71
2023/06/12 13:16:05;;;;;;;9.13;3.65;;;;;29.30;96264.00;;;;8310884;28;20193;-72
2023/06/12 13:20:10;;;;;;;8.82;3.88;;;;;29.90;96259.00;;;;8309357;28;20217;-72
2023/06/12 13:24:14;;;;;;;7.68;3.60;;;;;30.40;96273.00;;;;8313145;28;20228;-73
2023/06/12 13:28:21;;;;;;;4.45;3.25;;;;;30.80;96268.00;;;;8309824;28;20324;-73
2023/06/12 13:32:28;;;;;;;4.10;3.70;;;;;31.20;96268.00;;;;8310973;28;20202;-71
2023/06/12 13:36:33;;;;;;;5.13;3.50;;;;;31.80;96264.00;;;;8309094;28;20682;-72
2023/06/12 13:40:37;;;;;;;3.47;3.17;;;;;32.50;96261.00;;;;8308542;28;20297;-72
2023/06/12 13:44:40;;;;;;;3.75;3.45;;;;;33.20;96262.00;;;;8300647;28;20708;-72
2023/06/12 13:48:49;;;;;;;4.13;3.72;;;;;33.20;96268.00;;;;8307048;28;20230;-72
2023/06/12 13:53:02;;;;;;;3.85;3.45;;;;;32.90;96265.00;;;;8307742;28;20198;-74
2023/06/12 13:57:07;;;;;;;4.90;3.70;;;;;33.30;96269.00;;;;8306529;28;20201;-76
2023/06/12 14:01:11;;;;;;;4.15;3.40;;;;;33.70;96272.00;;;;8305890;28;20197;-72
2023/06/12 14:05:18;;;;;;;5.05;3.60;;;;;33.70;96270.00;;;;8302231;28;20304;-71
2023/06/12 14:09:23;;;;;;;3.67;3.38;;;;;33.70;96261.00;;;;8300082;28;20190;-72
2023/06/12 14:13:28;;;;;;;9.05;3.65;;;;;33.80;96268.00;;;;8308844;28;20274;-71
2023/06/12 14:17:33;;;;;;;4.32;3.60;;;;;32.90;96257.00;;;;8303384;28;20288;-71
2023/06/12 14:21:40;;;;;;;4.55;3.40;;;;;32.80;96255.00;;;;8307518;28;20289;-72
2023/06/12 14:25:48;;;;;;;5.47;3.85;;;;;31.90;96254.00;;;;8304725;28;20232;-73
2023/06/12 14:29:54;;;;;;;4.40;3.90;;;;;31.90;96261.00;;;;8303422;28;20281;-68
2023/06/12 14:33:59;;;;;;;6.57;3.88;;;;;31.90;96252.00;;;;8316308;28;20201;-69
2023/06/12 14:38:04;;;;;;;3.22;3.03;;;;;31.70;96248.00;;;;8299687;28;20193;-66
2023/06/12 14:42:08;;;;;;;4.10;3.70;;;;;31.50;96257.00;;;;8315805;28;20283;-64
2023/06/12 14:46:11;;;;;;;5.78;3.53;;;;;31.10;96252.00;;;;8318007;28;20940;-65
2023/06/12 14:50:16;;;;;;;5.78;3.17;;;;;31.20;96249.00;;;;8317350;28;20639;-64
2023/06/12 14:54:21;;;;;;;6.00;3.33;;;;;31.80;96256.00;;;;8289584;28;20200;-64
2023/06/12 14:58:24;;;;;;;8.35;3.60;;;;;31.70;96261.00;;;;8317020;28;20622;-64
2023/06/12 15:02:27;;;;;;;4.72;3.35;;;;;31.40;96248.00;;;;8316619;28;20221;-66
2023/06/12 15:06:30;;;;;;;3.67;3.38;;;;;31.40;96257.00;;;;8317161;28;20221;-64
2023/06/12 15:10:37;;;;;;;4.35;3.28;;;;;31.80;96251.00;;;;8320397;28;20795;-65
2023/06/12 15:14:41;;;;;;;3.78;3.42;;;;;31.80;96248.00;;;;8322402;28;20216;-64
2023/06/12 15:18:45;;;;;;;3.92;3.53;;;;;31.80;96252.00;;;;8316203;28;20205;-64
2023/06/12 15:22:49;;;;;;;5.03;3.33;;;;;31.70;96255.00;;;;8307057;28;20201;-67
2023/06/12 15:26:53;;;;;;;4.82;3.70;;;;;31.10;96238.00;;;;8314888;28;20316;-68
2023/06/12 15:30:57;;;;;;;4.72;3.70;;;;;30.70;96250.00;;;;8315355;28;20745;-68
2023/06/12 15:35:03;;;;;;;4.15;3.67;;;;;30.60;96241.00;;;;8310557;28;20196;-67
2023/06/12 15:39:11;;;;;;;7.65;3.88;;;;;30.80;96232.00;;;;8296155;28;20197;-67
2023/06/12 15:43:18;;;;;;;4.10;3.70;;;;;31.00;96237.00;;;;8317351;28;20201;-68
2023/06/12 15:47:21;;;;;;;4.13;3.50;;;;;30.70;96235.00;;;;8319169;28;20221;-69
2023/06/12 15:51:26;;;;;;;3.95;3.65;;;;;30.50;96236.00;;;;8320412;28;20217;-68
2023/06/12 15:55:30;;;;;;;4.38;3.63;;;;;29.90;96230.00;;;;8316952;28;20229;-67
2023/06/12 15:59:38;;;;;;;3.85;3.42;;;;;29.60;96232.00;;;;8324877;28;20202;-67
2023/06/12 16:03:41;;;;;;;4.32;3.90;;;;;29.30;96227.00;;;;8328631;28;20231;-66
2023/06/12 16:07:45;;;;;;;4.13;3.65;;;;;29.20;96227.00;;;;8318234;28;20798;-68
2023/06/12 16:11:48;;;;;;;5.55;3.83;;;;;29.40;96228.00;;;;8305842;28;20217;-69
2023/06/12 16:15:53;;;;;;;6.03;3.67;;;;;29.60;96232.00;;;;8330989;28;20285;-68
2023/06/12 16:19:58;;;;;;;9.13;3.92;;;;;29.90;96240.00;;;;8321646;28;21845;-67
2023/06/12 16:24:01;;;;;;;3.95;3.60;;;;;29.80;96231.00;;;;8331090;28;20232;-67
2023/06/12 16:28:06;;;;;;;4.63;3.85;;;;;29.90;96229.00;;;;8313170;28;20229;-69
2023/06/12 16:32:11;;;;;;;5.65;3.40;;;;;29.60;96229.00;;;;8322766;28;20194;-68
2023/06/12 16:36:17;;;;;;;4.55;3.42;;;;;29.40;96234.00;;;;8318430;28;20283;-69
2023/06/12 16:40:22;;;;;;;4.60;4.20;;;;;29.50;96231.00;;;;8320877;28;20251;-68
2023/06/12 16:44:26;;;;;;;6.47;3.97;;;;;29.30;96231.00;;;;8322787;28;20186;-68
2023/06/12 16:48:35;;;;;;;4.05;3.65;;;;;29.30;96229.00;;;;8313935;28;20221;-68
2023/06/12 16:52:41;;;;;;;6.38;4.40;;;;;29.40;96237.00;;;;8325187;28;20221;-68
2023/06/12 16:56:44;;;;;;;4.05;3.60;;;;;29.70;96233.00;;;;8319324;28;20190;-69
2023/06/12 17:00:48;;;;;;;4.85;3.95;;;;;29.90;96232.00;;;;8329751;28;20280;-67
2023/06/12 17:04:53;;;;;;;5.47;3.45;;;;;30.00;96230.00;;;;8319317;28;20312;-68
2023/06/12 17:08:57;;;;;;;5.05;3.60;;;;;29.90;96232.00;;;;8324905;28;20229;-68
2023/06/12 17:13:00;;;;;;;4.90;3.40;;;;;29.80;96234.00;;;;8322222;28;20284;-67
2023/06/12 17:17:06;;;;;;;3.63;3.33;;;;;29.70;96228.00;;;;8315263;28;20274;-66
2023/06/12 17:21:11;;;;;;;4.25;3.25;;;;;29.80;96236.00;;;;8313784;28;20957;-67
2023/06/12 17:25:16;;;;;;;5.03;3.72;;;;;29.90;96227.00;;;;8316446;28;20216;-69
2023/06/12 17:29:19;;;;;;;4.00;3.42;;;;;30.00;96227.00;;;;8312411;28;20232;-69
2023/06/12 17:33:22;;;;;;;5.97;3.67;;;;;29.90;96230.00;;;;8310474;28;20673;-70
2023/06/12 17:37:34;;;;;;;3.63;3.33;;;;;29.70;96222.00;;;;8312092;28;20237;-70
2023/06/12 17:41:41;;;;;;;4.78;3.95;;;;;29.60;96222.00;;;;8306914;28;20189;-70
2023/06/12 17:45:45;;;;;;;5.35;3.50;;;;;29.50;96214.00;;;;8306697;28;20594;-71
2023/06/12 17:49:51;;;;;;;7.72;3.72;;;;;29.40;96215.00;;;;8309420;28;20685;-70
2023/06/12 17:53:58;;;;;;;4.88;3.72;;;;;28.80;96221.00;;;;8311485;28;20208;-70
2023/06/12 17:58:03;;;;;;;3.42;3.15;;;;;27.80;96216.00;;;;8311558;28;20860;-69
2023/06/12 18:02:07;;;;;;;5.85;3.20;;;;;26.90;96216.00;;;;8312552;28;20316;-71
2023/06/12 18:06:12;;;;;;;5.07;3.45;;;;;26.10;96208.00;;;;8312855;28;20260;-70
2023/06/12 18:10:17;;;;;;;4.25;3.85;;;;;25.40;96218.00;;;;8312078;28;20213;-70
2023/06/12 18:14:20;;;;;;;3.97;3.67;;;;;24.90;96212.00;;;;8314852;28;20333;-71
2023/06/12 18:18:25;;;;;;;4.63;3.53;;;;;24.40;96219.00;;;;8315051;28;20200;-70
2023/06/12 18:22:28;;;;;;;3.75;3.33;;;;;24.00;96221.00;;;;8308345;28;20261;-69
2023/06/12 18:26:36;;;;;;;5.88;3.28;;;;;23.70;96227.00;;;;8308687;28;20229;-70
2023/06/12 18:30:40;;;;;;;4.70;3.67;;;;;23.40;96236.00;;;;8307701;28;20922;-69
2023/06/12 18:34:48;;;;;;;6.47;3.42;;;;;23.10;96235.00;;;;8312648;28;20200;-69
2023/06/12 18:38:53;;;;;;;5.05;3.30;;;;;22.80;96233.00;;;;8308283;28;20206;-71
2023/06/12 18:42:58;;;;;;;6.25;3.30;;;;;22.60;96235.00;;;;8315937;28;20212;-70
2023/06/12 18:47:04;;;;;;;12.02;3.90;;;;;22.40;96233.00;;;;8308007;28;20793;-67
2023/06/12 18:51:10;;;;;;;3.67;3.05;;;;;22.20;96242.00;;;;8314424;28;20209;-68
2023/06/12 18:55:15;;;;;;;6.70;3.28;;;;;22.00;96242.00;;;;8306676;28;20791;-69
2023/06/12 18:59:21;;;;;;;7.88;3.60;;;;;21.80;96241.00;;;;8315384;28;20189;-69
2023/06/12 19:03:24;;;;;;;3.97;3.40;;;;;21.60;96248.00;;;;8313169;28;20231;-69
2023/06/12 19:07:29;;;;;;;5.78;3.38;;;;;21.50;96245.00;;;;8315730;28;20286;-70
2023/06/12 19:11:35;;;;;;;5.30;3.30;;;;;21.30;96248.00;;;;8314240;28;21144;-70
2023/06/12 19:15:40;;;;;;;7.00;3.80;;;;;21.20;96251.00;;;;8307307;28;20955;-70
2023/06/12 19:19:46;;;;;;;3.53;2.90;;;;;21.00;96252.00;;;;8308370;28;20236;-68
2023/06/12 19:23:51;;;;;;;5.18;3.10;;;;;20.80;96260.00;;;;8311554;28;20313;-67
2023/06/12 19:27:54;;;;;;;3.97;3.58;;;;;20.70;96261.00;;;;8309520;28;20263;-67
2023/06/12 19:32:02;;;;;;;3.78;3.38;;;;;20.50;96266.00;;;;8312856;28;20215;-69
2023/06/12 19:36:10;;;;;;;8.68;3.22;;;;;20.40;96261.00;;;;8311537;28;20255;-67
2023/06/12 19:40:15;;;;;;;5.82;3.45;;;;;20.30;96271.00;;;;8307608;28;20193;-68
2023/06/12 19:44:19;;;;;;;3.45;2.95;;;;;20.20;96277.00;;;;8314943;28;20232;-67
2023/06/12 19:48:25;;;;;;;6.35;3.13;;;;;20.00;96281.00;;;;8309421;28;20692;-68
2023/06/12 19:52:28;;;;;;;5.38;3.45;;;;;19.90;96278.00;;;;8312805;28;20598;-68
2023/06/12 19:56:31;;;;;;;7.45;3.40;;;;;19.70;96281.00;;;;8317404;28;21850;-67
2023/06/12 20:00:35;;;;;;;3.92;3.33;;;;;19.60;96279.00;;;;8320505;28;20204;-68
2023/06/12 20:04:39;;;;;;;4.13;3.08;;;;;19.50;96273.00;;;;8316658;28;20307;-68
2023/06/12 20:08:47;;;;;;;3.58;3.15;;;;;19.30;96271.00;;;;8317527;28;20292;-69
2023/06/12 20:12:50;;;;;;;5.43;2.90;;;;;19.20;96277.00;;;;8316558;28;20189;-69
2023/06/12 20:16:56;;;;;;;7.10;3.30;;;;;19.00;96280.00;;;;8316139;28;20198;-67
2023/06/12 20:21:03;;;;;;;5.78;4.18;;;;;18.90;96279.00;;;;8314010;28;20314;-67
2023/06/12 20:25:07;;;;;;;3.92;3.10;;;;;18.80;96278.00;;;;8319072;28;20548;-67
2023/06/12 20:29:10;;;;;;;5.32;3.65;;;;;18.70;96288.00;;;;8308586;28;20225;-74
2023/06/12 20:33:19;;;;;;;6.13;3.47;;;;;18.50;96289.00;;;;8316526;28;20248;-64
2023/06/12 20:37:25;;;;;;;4.78;3.05;;;;;18.40;96281.00;;;;8316722;28;20200;-69
2023/06/12 20:41:29;;;;;;;6.22;3.42;;;;;18.30;96278.00;;;;8319132;28;20206;-66
2023/06/12 20:45:32;;;;;;;4.60;3.63;;;;;18.10;96288.00;;;;8321208;28;20221;-65
2023/06/12 20:49:36;;;;;;;6.22;3.38;;;;;18.00;96274.00;;;;8302149;28;20259;-66
2023/06/12 20:53:44;;;;;;;4.30;3.25;;;;;17.90;96277.00;;;;8317719;28;20208;-66
2023/06/12 20:57:47;;;;;;;3.97;3.50;;;;;17.90;96279.00;;;;8320396;28;20193;-68
2023/06/12 21:01:55;;;;;;;5.15;3.22;;;;;17.80;96279.00;;;;8316402;28;20221;-71
2023/06/12 21:05:58;;;;;;;5.70;3.70;;;;;17.70;96279.00;;;;8302191;28;20595;-67
2023/06/12 21:10:04;;;;;;;5.18;3.72;;;;;17.70;96277.00;;;;8302973;28;20724;-67
2023/06/12 21:14:11;;;;;;;7.35;3.58;;;;;17.50;96275.00;;;;8307206;28;20232;-69
2023/06/12 21:18:14;;;;;;;6.40;3.50;;;;;17.40;96277.00;;;;8304744;28;20216;-67